createdAt,value
2017-12-30T00:00:22.613Z,52.58
2017-12-30T00:00:54.229Z,52.58
2017-12-30T00:01:25.849Z,52.68
2017-12-30T00:01:57.481Z,52.71
2017-12-30T00:02:29.110Z,52.92
2017-12-30T00:03:00.742Z,52.83
2017-12-30T00:03:32.361Z,52.87
2017-12-30T00:04:03.982Z,52.92
2017-12-30T00:04:35.646Z,52.96
2017-12-30T00:05:07.266Z,52.97
2017-12-30T00:05:38.945Z,53.05
2017-12-30T00:06:10.569Z,52.94
2017-12-30T00:06:42.189Z,53.00
2017-12-30T00:07:13.812Z,53.18
2017-12-30T00:07:45.442Z,53.09
2017-12-30T00:08:17.065Z,53.06
2017-12-30T00:08:48.690Z,52.97
2017-12-30T00:09:20.314Z,52.92
2017-12-30T00:09:51.937Z,52.94
2017-12-30T00:10:23.569Z,53.00
2017-12-30T00:10:55.241Z,53.10
2017-12-30T00:11:26.862Z,53.21
2017-12-30T00:11:58.480Z,53.30
2017-12-30T00:12:30.101Z,53.28
2017-12-30T00:13:01.725Z,53.35
2017-12-30T00:13:33.356Z,53.25
2017-12-30T00:14:05.010Z,53.29
2017-12-30T00:14:36.633Z,53.29
2017-12-30T00:15:08.258Z,53.33
2017-12-30T00:15:39.882Z,53.57
2017-12-30T00:16:11.572Z,53.56
2017-12-30T00:16:43.197Z,53.62
2017-12-30T00:17:14.821Z,53.68
2017-12-30T00:17:46.444Z,53.81
2017-12-30T00:18:18.070Z,53.85
2017-12-30T00:18:49.693Z,53.92
2017-12-30T00:19:21.317Z,53.98
2017-12-30T00:19:52.949Z,54.08
2017-12-30T00:20:24.570Z,54.12
2017-12-30T00:20:56.201Z,54.28
2017-12-30T00:21:27.881Z,54.42
2017-12-30T00:21:59.502Z,54.45
2017-12-30T00:22:31.121Z,54.56
2017-12-30T00:23:02.742Z,54.61
2017-12-30T00:23:34.366Z,55.14
2017-12-30T00:24:05.987Z,55.23
2017-12-30T00:24:37.605Z,55.44
2017-12-30T00:25:09.229Z,55.43
2017-12-30T00:25:40.853Z,55.55
2017-12-30T00:26:12.473Z,55.60
2017-12-30T00:26:44.137Z,55.52
2017-12-30T00:27:15.758Z,55.76
2017-12-30T00:27:47.389Z,55.69
2017-12-30T00:28:19.015Z,55.62
2017-12-30T00:28:50.638Z,55.69
2017-12-30T00:29:22.261Z,55.63
2017-12-30T00:29:53.883Z,55.67
2017-12-30T00:30:25.510Z,55.78
2017-12-30T00:30:57.138Z,55.75
2017-12-30T00:31:28.924Z,55.79
2017-12-30T00:32:00.549Z,55.87
2017-12-30T00:32:32.253Z,55.83
2017-12-30T00:33:03.910Z,55.88
2017-12-30T00:33:35.529Z,55.97
2017-12-30T00:34:07.158Z,56.08
2017-12-30T00:34:38.781Z,56.09
2017-12-30T00:35:11.421Z,56.05
2017-12-30T00:35:43.045Z,56.08
2017-12-30T00:36:14.673Z,56.17
2017-12-30T00:36:46.293Z,56.26
2017-12-30T00:37:17.913Z,56.24
2017-12-30T00:37:49.582Z,56.29
2017-12-30T00:38:21.202Z,56.30
2017-12-30T00:38:52.823Z,56.35
2017-12-30T00:39:24.454Z,56.50
2017-12-30T00:39:56.085Z,56.53
2017-12-30T00:40:27.874Z,56.51
2017-12-30T00:40:59.501Z,56.57
2017-12-30T00:41:31.125Z,56.59
2017-12-30T00:42:02.745Z,56.61
2017-12-30T00:42:34.368Z,56.73
2017-12-30T00:43:06.038Z,56.72
2017-12-30T00:43:37.667Z,56.73
2017-12-30T00:44:09.289Z,56.67
2017-12-30T00:44:40.909Z,56.74
2017-12-30T00:45:12.537Z,56.74
2017-12-30T00:45:44.162Z,56.77
2017-12-30T00:46:15.781Z,56.78
2017-12-30T00:46:47.401Z,56.78
2017-12-30T00:47:19.237Z,56.71
2017-12-30T00:47:50.858Z,56.83
2017-12-30T00:48:22.548Z,56.80
2017-12-30T00:48:54.174Z,56.83
2017-12-30T00:49:25.802Z,56.74
2017-12-30T00:49:57.425Z,56.77
2017-12-30T00:50:29.046Z,56.71
2017-12-30T00:51:00.666Z,56.71
2017-12-30T00:51:32.289Z,56.72
2017-12-30T00:52:03.913Z,56.79
2017-12-30T00:52:35.533Z,56.77
2017-12-30T00:53:07.160Z,56.75
2017-12-30T00:53:38.834Z,56.76
2017-12-30T00:54:10.449Z,56.85
2017-12-30T00:54:42.076Z,56.88
2017-12-30T00:55:13.698Z,56.88
2017-12-30T00:55:45.321Z,56.89
2017-12-30T00:56:16.976Z,56.82
2017-12-30T00:56:48.600Z,56.81
2017-12-30T00:57:20.221Z,56.83
2017-12-30T00:57:51.845Z,56.78
2017-12-30T00:58:23.466Z,56.85
2017-12-30T00:58:55.142Z,56.83
2017-12-30T00:59:26.770Z,56.68
2017-12-30T00:59:58.390Z,56.80
2017-12-30T01:00:30.019Z,56.73
2017-12-30T01:01:01.646Z,56.62
2017-12-30T01:01:33.281Z,56.54
2017-12-30T01:02:04.907Z,56.60
2017-12-30T01:02:36.543Z,56.51
2017-12-30T01:03:08.205Z,56.45
2017-12-30T01:03:39.852Z,56.33
2017-12-30T01:04:11.478Z,56.37
2017-12-30T01:04:43.105Z,56.14
2017-12-30T01:05:14.731Z,56.19
2017-12-30T01:05:46.358Z,56.07
2017-12-30T01:06:17.993Z,56.19
2017-12-30T01:06:49.614Z,56.06
2017-12-30T01:07:21.240Z,56.11
2017-12-30T01:07:52.862Z,56.18
2017-12-30T01:08:24.482Z,56.21
2017-12-30T01:08:56.105Z,56.34
2017-12-30T01:09:27.770Z,56.08
2017-12-30T01:09:59.402Z,56.25
2017-12-30T01:10:31.026Z,56.35
2017-12-30T01:11:02.648Z,56.24
2017-12-30T01:11:34.278Z,56.18
2017-12-30T01:12:05.942Z,56.16
2017-12-30T01:12:37.563Z,56.19
2017-12-30T01:13:09.187Z,56.11
2017-12-30T01:13:40.818Z,56.12
2017-12-30T01:14:12.454Z,56.12
2017-12-30T01:14:44.129Z,56.00
2017-12-30T01:15:15.758Z,56.00
2017-12-30T01:15:47.381Z,55.90
2017-12-30T01:16:18.997Z,55.83
2017-12-30T01:16:50.621Z,55.90
2017-12-30T01:17:22.245Z,55.78
2017-12-30T01:17:53.872Z,55.76
2017-12-30T01:18:25.529Z,55.73
2017-12-30T01:18:57.156Z,55.70
2017-12-30T01:19:28.782Z,55.71
2017-12-30T01:20:00.458Z,55.60
2017-12-30T01:20:32.078Z,55.63
2017-12-30T01:21:03.710Z,55.65
2017-12-30T01:21:35.333Z,55.61
2017-12-30T01:22:07.467Z,55.63
2017-12-30T01:22:39.094Z,55.56
2017-12-30T01:23:10.713Z,55.64
2017-12-30T01:23:42.336Z,55.53
2017-12-30T01:24:13.962Z,55.44
2017-12-30T01:24:45.590Z,55.44
2017-12-30T01:25:17.261Z,55.52
2017-12-30T01:25:48.882Z,55.54
2017-12-30T01:26:20.509Z,55.50
2017-12-30T01:26:52.130Z,55.50
2017-12-30T01:27:23.751Z,55.47
2017-12-30T01:27:55.386Z,55.45
2017-12-30T01:28:27.010Z,55.54
2017-12-30T01:28:58.629Z,55.56
2017-12-30T01:29:30.249Z,55.71
2017-12-30T01:30:01.901Z,55.64
2017-12-30T01:30:33.594Z,55.61
2017-12-30T01:31:05.222Z,55.56
2017-12-30T01:31:36.850Z,55.65
2017-12-30T01:32:08.478Z,55.71
2017-12-30T01:32:40.101Z,55.51
2017-12-30T01:33:11.725Z,55.63
2017-12-30T01:33:43.354Z,55.69
2017-12-30T01:34:14.990Z,55.84
2017-12-30T01:34:46.609Z,55.69
2017-12-30T01:35:18.228Z,55.79
2017-12-30T01:35:49.905Z,55.80
2017-12-30T01:36:21.525Z,55.95
2017-12-30T01:36:53.158Z,55.86
2017-12-30T01:37:24.785Z,56.00
2017-12-30T01:37:56.413Z,55.93
2017-12-30T01:38:28.037Z,55.91
2017-12-30T01:38:59.662Z,55.95
2017-12-30T01:39:31.286Z,56.03
2017-12-30T01:40:02.908Z,56.02
2017-12-30T01:40:34.534Z,56.04
2017-12-30T01:41:06.162Z,56.11
2017-12-30T01:41:37.825Z,55.98
2017-12-30T01:42:09.457Z,56.09
2017-12-30T01:42:41.077Z,56.31
2017-12-30T01:43:12.697Z,56.23
2017-12-30T01:43:44.317Z,56.39
2017-12-30T01:44:16.032Z,56.57
2017-12-30T01:44:47.606Z,56.39
2017-12-30T01:45:19.274Z,56.43
2017-12-30T01:45:50.893Z,56.68
2017-12-30T01:46:22.514Z,56.62
2017-12-30T01:46:54.138Z,56.70
2017-12-30T01:47:26.063Z,56.75
2017-12-30T01:47:57.682Z,56.82
2017-12-30T01:48:29.305Z,56.72
2017-12-30T01:49:00.937Z,56.76
2017-12-30T01:49:32.574Z,56.69
2017-12-30T01:50:04.201Z,57.07
2017-12-30T01:50:35.871Z,57.19
2017-12-30T01:51:07.497Z,57.28
2017-12-30T01:51:39.125Z,57.40
2017-12-30T01:52:10.749Z,57.47
2017-12-30T01:52:42.370Z,57.42
2017-12-30T01:53:14.002Z,57.55
2017-12-30T01:53:45.629Z,57.43
2017-12-30T01:54:17.254Z,57.54
2017-12-30T01:54:48.885Z,57.46
2017-12-30T01:55:20.505Z,57.69
2017-12-30T01:55:52.129Z,57.71
2017-12-30T01:56:23.798Z,57.62
2017-12-30T01:56:55.436Z,57.70
2017-12-30T01:57:27.057Z,57.69
2017-12-30T01:57:58.681Z,57.73
2017-12-30T01:58:30.305Z,57.75
2017-12-30T01:59:01.925Z,57.73
2017-12-30T01:59:33.594Z,57.78
2017-12-30T02:00:05.218Z,57.68
2017-12-30T02:00:36.841Z,57.75
2017-12-30T02:01:08.461Z,57.66
2017-12-30T02:01:40.081Z,57.79
2017-12-30T02:02:11.709Z,57.85
2017-12-30T02:02:43.332Z,57.84
2017-12-30T02:03:14.953Z,57.92
2017-12-30T02:03:46.573Z,57.81
2017-12-30T02:04:18.198Z,57.96
2017-12-30T02:04:49.857Z,57.96
2017-12-30T02:05:21.485Z,57.88
2017-12-30T02:05:53.109Z,57.99
2017-12-30T02:06:24.743Z,57.97
2017-12-30T02:06:56.367Z,57.94
2017-12-30T02:07:27.993Z,58.04
2017-12-30T02:07:59.614Z,58.06
2017-12-30T02:08:31.243Z,58.13
2017-12-30T02:09:02.884Z,58.15
2017-12-30T02:09:34.506Z,58.21
2017-12-30T02:10:06.165Z,58.27
2017-12-30T02:10:37.790Z,58.16
2017-12-30T02:11:09.412Z,58.29
2017-12-30T02:11:41.062Z,58.25
2017-12-30T02:12:12.690Z,58.23
2017-12-30T02:12:44.329Z,58.18
2017-12-30T02:13:15.959Z,58.36
2017-12-30T02:13:47.606Z,58.37
2017-12-30T02:14:19.229Z,58.24
2017-12-30T02:14:50.861Z,58.28
2017-12-30T02:15:22.669Z,58.17
2017-12-30T02:15:54.289Z,58.23
2017-12-30T02:16:25.916Z,58.26
2017-12-30T02:16:57.537Z,58.21
2017-12-30T02:17:29.156Z,58.24
2017-12-30T02:18:00.777Z,58.26
2017-12-30T02:18:32.405Z,58.29
2017-12-30T02:19:04.035Z,58.14
2017-12-30T02:19:35.653Z,58.14
2017-12-30T02:20:07.276Z,58.21
2017-12-30T02:20:38.943Z,58.20
2017-12-30T02:21:10.570Z,58.10
2017-12-30T02:21:42.238Z,58.02
2017-12-30T02:22:13.857Z,58.08
2017-12-30T02:22:45.480Z,58.08
2017-12-30T02:23:17.109Z,58.05
2017-12-30T02:23:48.729Z,58.00
2017-12-30T02:24:20.351Z,57.83
2017-12-30T02:24:51.970Z,57.81
2017-12-30T02:25:23.634Z,57.73
2017-12-30T02:25:55.254Z,57.56
2017-12-30T02:26:26.873Z,57.65
2017-12-30T02:26:58.502Z,57.54
2017-12-30T02:27:30.121Z,57.48
2017-12-30T02:28:01.743Z,57.45
2017-12-30T02:28:33.368Z,57.47
2017-12-30T02:29:05.030Z,57.25
2017-12-30T02:29:36.658Z,57.29
2017-12-30T02:30:08.277Z,57.17
2017-12-30T02:30:39.897Z,57.10
2017-12-30T02:31:11.518Z,57.01
2017-12-30T02:31:43.133Z,57.02
2017-12-30T02:32:14.793Z,56.94
2017-12-30T02:32:46.417Z,56.91
2017-12-30T02:33:18.039Z,56.75
2017-12-30T02:33:49.670Z,56.70
2017-12-30T02:34:21.293Z,56.67
2017-12-30T02:34:52.976Z,56.64
2017-12-30T02:35:24.597Z,56.57
2017-12-30T02:35:56.222Z,56.60
2017-12-30T02:36:27.845Z,56.60
2017-12-30T02:36:59.465Z,56.51
2017-12-30T02:37:31.091Z,56.61
2017-12-30T02:38:02.718Z,56.38
2017-12-30T02:38:34.347Z,56.36
2017-12-30T02:39:05.969Z,56.32
2017-12-30T02:39:37.593Z,56.29
2017-12-30T02:40:09.213Z,56.26
2017-12-30T02:40:40.837Z,56.26
2017-12-30T02:41:12.466Z,56.18
2017-12-30T02:41:44.089Z,56.02
2017-12-30T02:42:15.709Z,56.00
2017-12-30T02:42:47.338Z,56.07
2017-12-30T02:43:18.966Z,55.92
2017-12-30T02:43:50.589Z,55.97
2017-12-30T02:44:22.253Z,56.02
2017-12-30T02:44:53.874Z,56.05
2017-12-30T02:45:25.494Z,56.01
2017-12-30T02:45:57.118Z,56.35
2017-12-30T02:46:28.749Z,56.19
2017-12-30T02:47:00.377Z,56.13
2017-12-30T02:47:32.002Z,56.09
2017-12-30T02:48:03.623Z,56.02
2017-12-30T02:48:35.292Z,56.16
2017-12-30T02:49:06.921Z,56.03
2017-12-30T02:49:38.542Z,56.13
2017-12-30T02:50:10.170Z,56.06
2017-12-30T02:50:41.793Z,56.16
2017-12-30T02:51:13.417Z,56.17
2017-12-30T02:51:45.049Z,56.23
2017-12-30T02:52:16.681Z,56.27
2017-12-30T02:52:48.306Z,56.21
2017-12-30T02:53:19.925Z,56.21
2017-12-30T02:53:51.589Z,56.33
2017-12-30T02:54:23.215Z,56.38
2017-12-30T02:54:54.841Z,56.44
2017-12-30T02:55:26.461Z,56.54
2017-12-30T02:55:58.082Z,56.52
2017-12-30T02:56:29.759Z,56.53
2017-12-30T02:57:01.387Z,56.41
2017-12-30T02:57:33.039Z,56.58
2017-12-30T02:58:04.665Z,56.64
2017-12-30T02:58:36.302Z,56.94
2017-12-30T02:59:07.925Z,56.49
2017-12-30T02:59:39.545Z,56.53
2017-12-30T03:00:11.166Z,56.37
2017-12-30T03:00:42.798Z,56.39
2017-12-30T03:01:14.418Z,56.33
2017-12-30T03:01:46.085Z,56.29
2017-12-30T03:02:17.705Z,56.38
2017-12-30T03:02:49.325Z,56.42
2017-12-30T03:03:20.950Z,56.42
2017-12-30T03:03:52.578Z,56.58
2017-12-30T03:04:24.201Z,56.59
2017-12-30T03:04:55.826Z,56.55
2017-12-30T03:05:27.471Z,56.55
2017-12-30T03:05:59.090Z,56.59
2017-12-30T03:06:30.757Z,56.64
2017-12-30T03:07:02.383Z,56.62
2017-12-30T03:07:34.005Z,56.75
2017-12-30T03:08:05.634Z,56.78
2017-12-30T03:08:37.257Z,56.81
2017-12-30T03:09:08.878Z,56.85
2017-12-30T03:09:40.509Z,57.00
2017-12-30T03:10:12.162Z,57.08
2017-12-30T03:10:43.785Z,57.18
2017-12-30T03:11:15.406Z,57.37
2017-12-30T03:11:47.073Z,57.22
2017-12-30T03:12:18.698Z,57.43
2017-12-30T03:12:50.321Z,57.40
2017-12-30T03:13:21.941Z,57.42
2017-12-30T03:13:53.570Z,57.54
2017-12-30T03:14:25.190Z,57.68
2017-12-30T03:14:56.814Z,57.67
2017-12-30T03:15:28.437Z,57.67
2017-12-30T03:16:00.067Z,57.57
2017-12-30T03:16:31.730Z,57.66
2017-12-30T03:17:03.353Z,57.88
2017-12-30T03:17:34.974Z,57.95
2017-12-30T03:18:06.654Z,57.88
2017-12-30T03:18:38.299Z,57.94
2017-12-30T03:19:09.921Z,58.09
2017-12-30T03:19:41.541Z,58.22
2017-12-30T03:20:13.234Z,58.14
2017-12-30T03:20:44.862Z,58.23
2017-12-30T03:21:16.489Z,58.23
2017-12-30T03:21:48.109Z,58.28
2017-12-30T03:22:19.731Z,58.40
2017-12-30T03:22:51.350Z,58.43
2017-12-30T03:23:23.012Z,58.46
2017-12-30T03:23:54.629Z,58.43
2017-12-30T03:24:26.251Z,58.51
2017-12-30T03:24:57.886Z,58.41
2017-12-30T03:25:29.509Z,58.55
2017-12-30T03:26:01.133Z,58.52
2017-12-30T03:26:32.761Z,58.44
2017-12-30T03:27:04.385Z,58.68
2017-12-30T03:27:36.010Z,58.77
2017-12-30T03:28:07.661Z,58.70
2017-12-30T03:28:39.338Z,58.92
2017-12-30T03:29:10.975Z,58.84
2017-12-30T03:29:42.593Z,58.73
2017-12-30T03:30:14.214Z,58.84
2017-12-30T03:30:45.841Z,58.86
2017-12-30T03:31:17.462Z,58.89
2017-12-30T03:31:49.086Z,59.08
2017-12-30T03:32:20.718Z,59.09
2017-12-30T03:32:52.337Z,59.06
2017-12-30T03:33:23.966Z,59.13
2017-12-30T03:33:55.626Z,59.08
2017-12-30T03:34:27.250Z,59.08
2017-12-30T03:34:58.870Z,59.10
2017-12-30T03:35:30.490Z,59.21
2017-12-30T03:36:02.109Z,59.13
2017-12-30T03:36:33.738Z,59.13
2017-12-30T03:37:05.357Z,59.24
2017-12-30T03:37:36.982Z,59.14
2017-12-30T03:38:08.602Z,59.09
2017-12-30T03:38:40.274Z,59.12
2017-12-30T03:39:11.897Z,59.04
2017-12-30T03:39:43.526Z,59.01
2017-12-30T03:40:15.149Z,58.90
2017-12-30T03:40:46.769Z,58.90
2017-12-30T03:41:18.394Z,58.82
2017-12-30T03:41:50.013Z,58.93
2017-12-30T03:42:21.635Z,58.92
2017-12-30T03:42:53.262Z,59.16
2017-12-30T03:43:24.887Z,59.11
2017-12-30T03:43:56.561Z,58.99
2017-12-30T03:44:28.186Z,58.89
2017-12-30T03:44:59.809Z,59.04
2017-12-30T03:45:31.430Z,58.94
2017-12-30T03:46:03.051Z,58.90
2017-12-30T03:46:34.671Z,58.71
2017-12-30T03:47:06.298Z,58.71
2017-12-30T03:47:37.918Z,58.74
2017-12-30T03:48:09.541Z,58.64
2017-12-30T03:48:41.161Z,58.67
2017-12-30T03:49:12.781Z,58.58
2017-12-30T03:49:44.410Z,58.49
2017-12-30T03:50:16.029Z,58.50
2017-12-30T03:50:47.650Z,58.45
2017-12-30T03:51:19.269Z,58.43
2017-12-30T03:51:50.889Z,58.35
2017-12-30T03:52:22.522Z,58.32
2017-12-30T03:52:54.158Z,58.24
2017-12-30T03:53:25.782Z,58.30
2017-12-30T03:53:57.406Z,58.33
2017-12-30T03:54:29.065Z,58.13
2017-12-30T03:55:00.693Z,58.12
2017-12-30T03:55:32.318Z,58.27
2017-12-30T03:56:03.941Z,58.29
2017-12-30T03:56:35.609Z,58.18
2017-12-30T03:57:07.230Z,58.15
2017-12-30T03:57:38.850Z,58.10
2017-12-30T03:58:10.478Z,58.16
2017-12-30T03:58:42.105Z,58.03
2017-12-30T03:59:13.730Z,58.17
2017-12-30T03:59:45.353Z,57.98
2017-12-30T04:00:16.978Z,58.04
2017-12-30T04:00:48.606Z,57.82
2017-12-30T04:01:20.232Z,57.89
2017-12-30T04:01:51.901Z,57.92
2017-12-30T04:02:23.527Z,57.73
2017-12-30T04:02:55.149Z,57.96
2017-12-30T04:03:26.770Z,58.02
2017-12-30T04:03:58.398Z,58.07
2017-12-30T04:04:30.021Z,58.15
2017-12-30T04:05:01.646Z,58.12
2017-12-30T04:05:33.268Z,58.15
2017-12-30T04:06:04.889Z,58.14
2017-12-30T04:06:36.514Z,58.17
2017-12-30T04:07:08.257Z,58.21
2017-12-30T04:07:39.877Z,58.18
2017-12-30T04:08:11.497Z,58.57
2017-12-30T04:08:43.126Z,58.44
2017-12-30T04:09:14.745Z,58.64
2017-12-30T04:09:46.365Z,58.45
2017-12-30T04:10:17.993Z,58.53
2017-12-30T04:10:49.650Z,58.42
2017-12-30T04:11:21.270Z,58.58
2017-12-30T04:11:52.893Z,58.48
2017-12-30T04:12:24.553Z,58.46
2017-12-30T04:12:56.173Z,58.47
2017-12-30T04:13:27.794Z,58.43
2017-12-30T04:13:59.422Z,58.48
2017-12-30T04:14:31.045Z,58.53
2017-12-30T04:15:02.670Z,58.41
2017-12-30T04:15:34.290Z,58.44
2017-12-30T04:16:05.907Z,58.48
2017-12-30T04:16:37.534Z,58.55
2017-12-30T04:17:09.157Z,58.62
2017-12-30T04:17:40.825Z,58.43
2017-12-30T04:18:12.445Z,58.43
2017-12-30T04:18:44.078Z,58.41
2017-12-30T04:19:15.696Z,58.36
2017-12-30T04:19:47.318Z,58.47
2017-12-30T04:20:18.978Z,58.45
2017-12-30T04:20:50.597Z,58.48
2017-12-30T04:21:22.221Z,58.44
2017-12-30T04:21:53.837Z,58.49
2017-12-30T04:22:25.469Z,58.69
2017-12-30T04:22:57.085Z,58.53
2017-12-30T04:23:28.705Z,58.74
2017-12-30T04:24:00.334Z,58.83
2017-12-30T04:24:32.004Z,58.82
2017-12-30T04:25:03.622Z,58.73
2017-12-30T04:25:35.241Z,58.71
2017-12-30T04:26:06.866Z,58.57
2017-12-30T04:26:38.502Z,58.83
2017-12-30T04:27:10.121Z,58.89
2017-12-30T04:27:41.738Z,59.26
2017-12-30T04:28:13.366Z,59.12
2017-12-30T04:28:44.985Z,59.05
2017-12-30T04:29:16.609Z,59.12
2017-12-30T04:29:48.270Z,59.01
2017-12-30T04:30:19.893Z,59.16
2017-12-30T04:30:51.518Z,59.17
2017-12-30T04:31:23.150Z,59.33
2017-12-30T04:31:54.778Z,59.35
2017-12-30T04:32:26.402Z,59.15
2017-12-30T04:32:58.021Z,59.24
2017-12-30T04:33:29.676Z,59.41
2017-12-30T04:34:01.307Z,59.38
2017-12-30T04:34:32.930Z,59.31
2017-12-30T04:35:04.596Z,59.61
2017-12-30T04:35:36.217Z,59.55
2017-12-30T04:36:07.842Z,59.61
2017-12-30T04:36:39.473Z,59.57
2017-12-30T04:37:11.101Z,59.67
2017-12-30T04:37:42.721Z,59.69
2017-12-30T04:38:14.344Z,59.58
2017-12-30T04:38:45.970Z,59.74
2017-12-30T04:39:17.598Z,59.71
2017-12-30T04:39:49.270Z,59.67
2017-12-30T04:40:20.889Z,59.71
2017-12-30T04:40:52.510Z,59.65
2017-12-30T04:41:24.129Z,59.80
2017-12-30T04:41:55.749Z,59.76
2017-12-30T04:42:27.405Z,59.71
2017-12-30T04:42:59.026Z,59.77
2017-12-30T04:43:30.646Z,59.71
2017-12-30T04:44:02.291Z,59.75
2017-12-30T04:44:33.913Z,59.79
2017-12-30T04:45:05.580Z,59.86
2017-12-30T04:45:37.198Z,59.85
2017-12-30T04:46:08.822Z,59.83
2017-12-30T04:46:40.447Z,59.79
2017-12-30T04:47:12.069Z,59.80
2017-12-30T04:47:43.697Z,59.80
2017-12-30T04:48:15.318Z,59.87
2017-12-30T04:48:46.992Z,59.81
2017-12-30T04:49:18.614Z,59.76
2017-12-30T04:49:50.242Z,59.87
2017-12-30T04:50:21.862Z,59.85
2017-12-30T04:50:53.492Z,59.84
2017-12-30T04:51:25.113Z,59.92
2017-12-30T04:51:56.733Z,59.87
2017-12-30T04:52:28.358Z,59.83
2017-12-30T04:52:59.977Z,59.82
2017-12-30T04:53:31.602Z,59.86
2017-12-30T04:54:03.262Z,59.83
2017-12-30T04:54:34.890Z,59.85
2017-12-30T04:55:06.510Z,59.80
2017-12-30T04:55:38.185Z,59.90
2017-12-30T04:56:09.813Z,59.84
2017-12-30T04:56:41.445Z,59.75
2017-12-30T04:57:13.074Z,59.70
2017-12-30T04:57:44.693Z,59.76
2017-12-30T04:58:16.314Z,59.67
2017-12-30T04:58:47.934Z,59.72
2017-12-30T04:59:19.555Z,59.87
2017-12-30T04:59:51.174Z,59.87
2017-12-30T05:00:22.822Z,59.76
2017-12-30T05:00:54.485Z,59.86
2017-12-30T05:01:26.106Z,59.83
2017-12-30T05:01:57.721Z,59.93
2017-12-30T05:02:29.348Z,59.84
2017-12-30T05:03:00.969Z,59.83
2017-12-30T05:03:32.590Z,59.52
2017-12-30T05:04:04.218Z,59.49
2017-12-30T05:04:35.837Z,59.44
2017-12-30T05:05:07.466Z,59.37
2017-12-30T05:05:39.091Z,59.26
2017-12-30T05:06:10.709Z,59.24
2017-12-30T05:06:42.330Z,59.30
2017-12-30T05:07:13.954Z,59.40
2017-12-30T05:07:45.585Z,59.43
2017-12-30T05:08:17.253Z,59.38
2017-12-30T05:08:48.926Z,59.22
2017-12-30T05:09:20.555Z,59.37
2017-12-30T05:09:52.182Z,59.21
2017-12-30T05:10:23.801Z,59.11
2017-12-30T05:10:55.422Z,59.00
2017-12-30T05:11:27.041Z,58.97
2017-12-30T05:11:58.661Z,58.89
2017-12-30T05:12:30.289Z,58.98
2017-12-30T05:13:01.919Z,58.87
2017-12-30T05:13:33.541Z,58.72
2017-12-30T05:14:05.209Z,58.69
2017-12-30T05:14:36.829Z,58.73
2017-12-30T05:15:08.454Z,58.71
2017-12-30T05:15:40.073Z,58.58
2017-12-30T05:16:11.693Z,58.49
2017-12-30T05:16:43.321Z,58.52
2017-12-30T05:17:14.945Z,58.47
2017-12-30T05:17:46.574Z,58.38
2017-12-30T05:18:18.198Z,58.42
2017-12-30T05:18:49.821Z,58.38
2017-12-30T05:19:21.493Z,58.40
2017-12-30T05:19:53.116Z,58.37
2017-12-30T05:20:24.733Z,58.35
2017-12-30T05:20:56.353Z,58.36
2017-12-30T05:21:27.985Z,58.23
2017-12-30T05:21:59.605Z,58.21
2017-12-30T05:22:31.230Z,58.13
2017-12-30T05:23:02.874Z,57.93
2017-12-30T05:23:34.501Z,57.93
2017-12-30T05:24:06.122Z,57.95
2017-12-30T05:24:37.798Z,58.02
2017-12-30T05:25:09.422Z,57.92
2017-12-30T05:25:41.046Z,58.17
2017-12-30T05:26:12.669Z,58.06
2017-12-30T05:26:44.293Z,58.13
2017-12-30T05:27:15.921Z,58.08
2017-12-30T05:27:47.542Z,58.01
2017-12-30T05:28:19.166Z,58.00
2017-12-30T05:28:50.785Z,58.04
2017-12-30T05:29:22.405Z,58.07
2017-12-30T05:29:54.084Z,58.09
2017-12-30T05:30:25.705Z,58.08
2017-12-30T05:30:57.325Z,58.08
2017-12-30T05:31:28.945Z,58.05
2017-12-30T05:32:00.569Z,58.24
2017-12-30T05:32:32.189Z,58.16
2017-12-30T05:33:03.853Z,58.13
2017-12-30T05:33:35.473Z,58.22
2017-12-30T05:34:07.093Z,58.27
2017-12-30T05:34:38.717Z,58.24
2017-12-30T05:35:10.378Z,58.34
2017-12-30T05:35:42.002Z,58.42
2017-12-30T05:36:13.665Z,58.41
2017-12-30T05:36:45.289Z,58.35
2017-12-30T05:37:16.911Z,58.27
2017-12-30T05:37:48.537Z,58.37
2017-12-30T05:38:20.197Z,58.30
2017-12-30T05:38:51.817Z,58.37
2017-12-30T05:39:23.445Z,58.42
2017-12-30T05:39:55.077Z,58.50
2017-12-30T05:40:26.697Z,58.43
2017-12-30T05:40:58.362Z,58.49
2017-12-30T05:41:30.021Z,58.60
2017-12-30T05:42:01.665Z,58.58
2017-12-30T05:42:33.302Z,58.54
2017-12-30T05:43:04.921Z,58.55
2017-12-30T05:43:36.549Z,58.62
2017-12-30T05:44:08.174Z,58.95
2017-12-30T05:44:39.793Z,58.78
2017-12-30T05:45:11.418Z,58.83
2017-12-30T05:45:43.041Z,58.93
2017-12-30T05:46:14.669Z,58.96
2017-12-30T05:46:46.330Z,59.38
2017-12-30T05:47:17.953Z,59.33
2017-12-30T05:47:49.574Z,59.23
2017-12-30T05:48:21.206Z,59.44
2017-12-30T05:48:52.839Z,59.57
2017-12-30T05:49:24.461Z,59.67
2017-12-30T05:49:56.082Z,59.73
2017-12-30T05:50:27.712Z,59.98
2017-12-30T05:50:59.333Z,59.88
2017-12-30T05:51:30.999Z,60.15
2017-12-30T05:52:02.665Z,59.90
2017-12-30T05:52:34.326Z,60.05
2017-12-30T05:53:05.945Z,59.97
2017-12-30T05:53:37.569Z,60.06
2017-12-30T05:54:09.193Z,60.30
2017-12-30T05:54:40.813Z,60.24
2017-12-30T05:55:12.442Z,60.21
2017-12-30T05:55:44.070Z,60.24
2017-12-30T05:56:15.690Z,60.35
2017-12-30T05:56:47.314Z,60.44
2017-12-30T05:57:18.937Z,60.49
2017-12-30T05:57:50.556Z,60.43
2017-12-30T05:58:22.222Z,60.51
2017-12-30T05:58:53.849Z,60.49
2017-12-30T05:59:25.478Z,60.49
2017-12-30T05:59:57.102Z,60.46
2017-12-30T06:00:28.720Z,60.53
2017-12-30T06:01:00.342Z,60.49
2017-12-30T06:01:32.994Z,60.48
2017-12-30T06:02:04.653Z,60.57
2017-12-30T06:02:36.274Z,60.46
2017-12-30T06:03:07.901Z,60.31
2017-12-30T06:03:39.521Z,60.33
2017-12-30T06:04:11.147Z,60.40
2017-12-30T06:04:42.805Z,60.46
2017-12-30T06:05:14.434Z,60.47
2017-12-30T06:05:46.053Z,60.36
2017-12-30T06:06:17.679Z,60.33
2017-12-30T06:06:49.297Z,60.40
2017-12-30T06:07:20.918Z,60.35
2017-12-30T06:07:52.537Z,60.37
2017-12-30T06:08:24.164Z,60.33
2017-12-30T06:08:55.831Z,60.37
2017-12-30T06:09:27.453Z,60.35
2017-12-30T06:09:59.082Z,60.39
2017-12-30T06:10:30.702Z,60.28
2017-12-30T06:11:02.321Z,60.46
2017-12-30T06:11:33.941Z,60.41
2017-12-30T06:12:05.561Z,60.36
2017-12-30T06:12:37.189Z,60.49
2017-12-30T06:13:08.805Z,60.36
2017-12-30T06:13:40.480Z,60.33
2017-12-30T06:14:12.106Z,60.28
2017-12-30T06:14:43.726Z,60.28
2017-12-30T06:15:15.353Z,60.32
2017-12-30T06:15:46.974Z,60.38
2017-12-30T06:16:18.593Z,60.36
2017-12-30T06:16:50.213Z,60.41
2017-12-30T06:17:21.833Z,60.30
2017-12-30T06:17:53.453Z,60.27
2017-12-30T06:18:25.078Z,60.16
2017-12-30T06:18:56.750Z,60.21
2017-12-30T06:19:28.369Z,60.16
2017-12-30T06:19:59.990Z,60.21
2017-12-30T06:20:31.614Z,60.16
2017-12-30T06:21:03.236Z,60.20
2017-12-30T06:21:34.853Z,60.15
2017-12-30T06:22:06.477Z,60.10
2017-12-30T06:22:38.105Z,60.00
2017-12-30T06:23:09.725Z,60.16
2017-12-30T06:23:41.349Z,60.18
2017-12-30T06:24:12.971Z,60.30
2017-12-30T06:24:44.597Z,60.39
2017-12-30T06:25:16.221Z,60.12
2017-12-30T06:25:47.850Z,60.02
2017-12-30T06:26:19.757Z,60.01
2017-12-30T06:26:51.377Z,59.72
2017-12-30T06:27:23.001Z,59.75
2017-12-30T06:27:54.630Z,59.70
2017-12-30T06:28:26.296Z,59.71
2017-12-30T06:28:57.925Z,59.46
2017-12-30T06:29:29.641Z,59.45
2017-12-30T06:30:01.254Z,59.30
2017-12-30T06:30:32.882Z,59.37
2017-12-30T06:31:04.502Z,59.36
2017-12-30T06:31:36.125Z,59.29
2017-12-30T06:32:07.749Z,59.43
2017-12-30T06:32:39.371Z,59.34
2017-12-30T06:33:11.001Z,59.34
2017-12-30T06:33:42.623Z,59.20
2017-12-30T06:34:14.245Z,59.20
2017-12-30T06:34:45.930Z,59.09
2017-12-30T06:35:17.549Z,59.03
2017-12-30T06:35:49.199Z,58.98
2017-12-30T06:36:20.817Z,58.99
2017-12-30T06:36:52.442Z,58.95
2017-12-30T06:37:24.069Z,58.84
2017-12-30T06:37:55.689Z,58.70
2017-12-30T06:38:27.315Z,58.69
2017-12-30T06:38:58.934Z,58.59
2017-12-30T06:39:30.557Z,58.66
2017-12-30T06:40:02.225Z,58.65
2017-12-30T06:40:33.850Z,58.70
2017-12-30T06:41:05.478Z,58.43
2017-12-30T06:41:37.102Z,58.36
2017-12-30T06:42:08.726Z,58.40
2017-12-30T06:42:40.349Z,58.38
2017-12-30T06:43:11.975Z,58.37
2017-12-30T06:43:43.602Z,58.21
2017-12-30T06:44:15.226Z,58.37
2017-12-30T06:44:46.849Z,58.44
2017-12-30T06:45:18.690Z,58.52
2017-12-30T06:45:50.309Z,58.43
2017-12-30T06:46:21.934Z,58.42
2017-12-30T06:46:53.557Z,58.59
2017-12-30T06:47:25.177Z,58.78